Terminal Aerodrome Forecast
Issued by NWS

Home | Current Version | Previous Version | Text Only | Print | Product List | Glossary On
Versions: 1 2 3 4 5 6 7 8 9 10 11 12 13 14
000
FTUS45 KCYS 271749
TAFLAR
TAF
KLAR 271749Z 2718/2818 35013G20KT P6SM FEW040 BKN100
     FM272100 04009KT 4SM -TSRA BKN080CB
     FM280100 13007KT P6SM BKN035
     FM280600 19006KT P6SM SCT200
     FM281700 30012G18KT P6SM BKN100=

USA.gov is the U.S. government's official web portal to all federal, state and local government web resources and services.